Cedarpines Park, California
Current Conditions -  °F | °C
As of 11:48 AM on Friday 24 Oct 2014 (Local Time) from KSBD Reporting Station
Clear Clear  
Wind Chill: 86°   Ceiling: Unl
Heat Index: 86°   Visibility: 10mi
Dew Point: 30°   Wind: 7mph
Humidity: 13%   Direction: 250°WSW
Pressure: 30.01"   Gusts: NA
Location:  34.25°N, 117.33°W
Report Text: KSBD 241848Z 25006KT 10SM SKC 30/M01 A3001
Loading
Personal Weather Stations






























Interactive Weather Map
Tropical Storm Tracking
New forecast layout! Learn more

10-Day Weather Forecast

Advertisements
Track Severe Weather on mobile